Time;durP1;ratioP1;P1;durP2;ratioP2;P2;SDS_P1;SDS_P2;PMS_P1;PMS_P2;Temp;Humidity;BMP_temperature;BMP_pressure;BME280_temperature;BME280_humidity;BME280_pressure;Samples;Min_cycle;Max_cycle;Signal;HPM_P1;HPM_P2
2022/08/21 00:02:19;;;;;;;67.57;42.72;;;;;;;16.14;46.58;100853.75;4791383;29;20051;-77
2022/08/21 00:04:46;;;;;;;69.05;44.30;;;;;;;16.15;46.25;100853.75;4782887;29;20204;-78
2022/08/21 00:07:13;;;;;;;71.95;43.38;;;;;;;16.14;46.53;100859.88;4781776;29;20043;-78
2022/08/21 00:09:39;;;;;;;74.15;44.08;;;;;;;16.10;46.22;100858.19;4813020;29;20106;-77
2022/08/21 00:12:05;;;;;;;67.45;43.00;;;;;;;16.08;46.48;100867.84;4812461;29;20051;-77
2022/08/21 00:14:32;;;;;;;66.38;45.05;;;;;;;16.04;46.55;100860.91;4782544;29;20043;-77
2022/08/21 00:16:59;;;;;;;72.05;44.47;;;;;;;16.04;46.61;100853.03;4803297;29;20057;-74
2022/08/21 00:19:24;;;;;;;70.22;42.83;;;;;;;15.98;46.73;100855.75;4796436;29;20069;-76
2022/08/21 00:21:52;;;;;;;70.38;44.58;;;;;;;15.92;46.76;100854.97;4812312;29;20043;-77
2022/08/21 00:24:19;;;;;;;65.25;42.88;;;;;;;15.81;47.09;100834.09;4812777;29;20042;-76
2022/08/21 00:26:46;;;;;;;65.78;42.45;;;;;;;15.90;47.06;100859.34;4818897;29;20114;-77
2022/08/21 00:29:13;;;;;;;72.13;45.28;;;;;;;15.85;46.94;100858.50;4798618;29;20047;-76
2022/08/21 00:31:40;;;;;;;73.60;45.78;;;;;;;15.86;47.05;100857.66;4782916;29;20047;-78
2022/08/21 00:34:07;;;;;;;74.97;45.05;;;;;;;15.76;47.08;100850.78;4797182;29;20591;-75
2022/08/21 00:36:33;;;;;;;65.82;44.78;;;;;;;15.76;47.12;100851.63;4783575;29;20463;-76
2022/08/21 00:38:59;;;;;;;67.43;43.88;;;;;;;15.72;47.12;100844.69;4762489;29;20054;-75
2022/08/21 00:41:26;;;;;;;65.88;43.28;;;;;;;15.69;47.20;100839.47;4798984;29;20061;-76
2022/08/21 00:43:53;;;;;;;66.95;43.42;;;;;;;15.79;47.16;100855.97;4766323;29;20046;-79
2022/08/21 00:46:19;;;;;;;73.00;44.70;;;;;;;15.73;47.08;100846.44;4778133;29;20043;-77
2022/08/21 00:48:45;;;;;;;75.15;44.70;;;;;;;15.82;47.26;100848.94;4782776;29;20408;-78
2022/08/21 00:51:22;;;;;;;68.65;42.50;;;;;;;15.85;47.19;100852.41;4782238;29;20062;-75
2022/08/21 00:53:54;;;;;;;68.25;42.65;;;;;;;15.81;47.22;100834.09;4782779;29;20057;-78
2022/08/21 00:56:21;;;;;;;72.55;43.03;;;;;;;15.85;47.28;100848.03;4796776;29;20512;-78
2022/08/21 00:58:48;;;;;;;65.63;42.97;;;;;;;15.93;46.98;100854.06;4786617;29;20069;-77
2022/08/21 01:01:14;;;;;;;66.20;43.80;;;;;;;15.91;46.95;100854.97;4766525;29;20515;-77
2022/08/21 01:03:40;;;;;;;66.22;41.00;;;;;;;15.89;47.36;100856.78;4796063;29;20043;-77
2022/08/21 01:06:08;;;;;;;63.22;42.75;;;;;;;15.80;47.21;100850.72;4782303;29;20864;-77
2022/08/21 01:08:35;;;;;;;64.55;42.38;;;;;;;15.84;46.91;100850.69;4781634;29;20644;-76
2022/08/21 01:11:03;;;;;;;66.63;43.17;;;;;;;15.85;47.13;100853.25;4781972;29;20047;-76
2022/08/21 01:13:31;;;;;;;59.53;41.53;;;;;;;15.89;46.79;100862.88;4782342;29;20834;-75
2022/08/21 01:16:00;;;;;;;68.57;42.92;;;;;;;15.87;46.96;100862.03;4790273;29;20154;-78
2022/08/21 01:18:27;;;;;;;71.05;42.58;;;;;;;15.79;47.06;100861.22;4789398;29;20062;-76
2022/08/21 01:21:10;;;;;;;64.00;42.35;;;;;;;15.76;47.41;100854.25;4783119;29;20059;-78
2022/08/21 01:23:39;;;;;;;65.18;41.70;;;;;;;15.74;47.32;100853.41;4795526;29;20051;-77
2022/08/21 01:26:06;;;;;;;63.00;40.75;;;;;;;15.69;47.35;100843.88;4795312;29;20047;-75
2022/08/21 01:28:38;;;;;;;62.85;40.78;;;;;;;15.66;47.55;100840.41;4780948;29;20075;-77
2022/08/21 01:31:08;;;;;;;61.58;40.05;;;;;;;15.74;47.58;100855.19;4773663;29;20047;-78
2022/08/21 01:33:34;;;;;;;63.45;40.63;;;;;;;15.75;47.25;100857.78;4798431;29;20070;-77
2022/08/21 01:36:00;;;;;;;63.00;41.17;;;;;;;15.76;47.55;100851.63;4777225;29;20050;-77
2022/08/21 01:38:26;;;;;;;61.05;40.90;;;;;;;15.74;47.33;100857.81;4784575;29;20054;-78
2022/08/21 01:40:52;;;;;;;60.88;39.10;;;;;;;15.70;47.37;100849.09;4800367;29;20071;-78
2022/08/21 01:43:18;;;;;;;62.22;39.38;;;;;;;15.60;47.69;100840.47;4784817;29;20053;-75
2022/08/21 01:45:44;;;;;;;57.40;38.67;;;;;;;15.61;47.43;100852.72;4800496;29;20130;-76
2022/08/21 01:48:10;;;;;;;56.22;38.40;;;;;;;15.59;47.57;100848.38;4785441;29;20055;-77
2022/08/21 01:50:36;;;;;;;63.35;40.35;;;;;;;15.39;47.64;100819.78;4799472;29;20047;-76
2022/08/21 01:53:03;;;;;;;60.38;37.60;;;;;;;15.50;47.77;100849.38;4783154;29;20162;-77
2022/08/21 01:55:29;;;;;;;61.22;37.92;;;;;;;15.55;47.55;100865.94;4768627;29;20459;-74
2022/08/21 01:57:57;;;;;;;61.67;40.03;;;;;;;15.56;47.98;100869.41;4783757;29;20054;-75
2022/08/21 02:00:23;;;;;;;58.97;38.38;;;;;;;15.55;47.58;100860.69;4799361;29;20139;-76
2022/08/21 02:02:50;;;;;;;63.35;38.88;;;;;;;15.55;47.69;100859.78;4784910;29;20116;-77
2022/08/21 02:05:16;;;;;;;60.35;37.92;;;;;;;15.39;47.54;100852.13;4785194;29;20055;-76
2022/08/21 02:07:49;;;;;;;56.08;37.20;;;;;;;15.42;48.08;100861.69;4765096;29;20043;-75
2022/08/21 02:10:21;;;;;;;59.67;38.30;;;;;;;15.37;48.23;100864.38;4784028;29;20142;-76
2022/08/21 02:12:47;;;;;;;55.30;36.40;;;;;;;15.33;48.12;100860.94;4794739;29;20043;-76
2022/08/21 02:15:33;;;;;;;55.63;35.40;;;;;;;15.26;48.57;100848.78;4786507;29;20119;-76
2022/08/21 02:18:01;;;;;;;55.33;36.17;;;;;;;15.17;48.34;100852.38;4813446;29;20039;-76
2022/08/21 02:20:31;;;;;;;54.42;34.50;;;;;;;15.15;48.39;100855.88;4814184;29;20047;-77
2022/08/21 02:22:57;;;;;;;58.88;36.97;;;;;;;15.09;48.37;100853.34;4783767;29;20599;-77
2022/08/21 02:25:25;;;;;;;61.45;35.15;;;;;;;15.11;48.88;100868.16;4784820;29;20137;-76
2022/08/21 02:27:52;;;;;;;55.40;35.67;;;;;;;15.10;48.92;100873.44;4812599;29;20054;-79
2022/08/21 02:30:21;;;;;;;55.15;35.95;;;;;;;15.10;48.83;100876.91;4785902;29;20074;-77
2022/08/21 02:32:48;;;;;;;56.72;35.88;;;;;;;15.03;48.83;100870.88;4791214;29;20401;-75
2022/08/21 02:35:13;;;;;;;53.50;34.83;;;;;;;15.01;48.85;100864.78;4784404;29;20054;-77
2022/08/21 02:38:05;;;;;;;52.92;35.20;;;;;;;15.02;48.99;100871.75;4799879;29;20085;-78
2022/08/21 02:40:35;;;;;;;53.15;34.72;;;;;;;15.06;48.93;100869.94;4782169;29;20062;-77
2022/08/21 02:43:03;;;;;;;58.28;34.55;;;;;;;15.02;48.51;100863.88;4786087;29;20039;-78
2022/08/21 02:45:30;;;;;;;55.08;34.10;;;;;;;15.02;48.77;100863.88;4784949;29;20769;-77
2022/08/21 02:48:00;;;;;;;54.88;34.83;;;;;;;15.11;48.64;100872.56;4784078;29;20177;-76
2022/08/21 02:50:30;;;;;;;58.05;34.90;;;;;;;15.10;48.63;100860.31;4794258;29;20043;-77
2022/08/21 02:52:57;;;;;;;52.72;34.20;;;;;;;15.14;48.61;100873.38;4782965;29;20100;-77
2022/08/21 02:55:26;;;;;;;57.75;35.33;;;;;;;15.13;48.79;100858.53;4814185;29;20047;-75
2022/08/21 02:57:52;;;;;;;51.63;34.78;;;;;;;15.19;48.66;100860.22;4819981;29;20054;-76
2022/08/21 03:00:20;;;;;;;55.80;34.95;;;;;;;15.25;48.66;100861.88;4802534;29;20059;-78
2022/08/21 03:02:48;;;;;;;52.85;35.13;;;;;;;15.32;48.53;100860.94;4785589;29;20054;-76
2022/08/21 03:05:15;;;;;;;58.00;34.67;;;;;;;15.34;48.41;100873.13;4812948;29;20101;-77
2022/08/21 03:07:43;;;;;;;58.90;35.55;;;;;;;15.45;48.43;100872.16;4784518;29;20047;-76
2022/08/21 03:10:10;;;;;;;54.03;34.28;;;;;;;15.48;48.14;100874.75;4784854;29;20047;-77
2022/08/21 03:12:37;;;;;;;56.45;36.25;;;;;;;15.54;48.01;100879.91;4797261;29;20043;-75
2022/08/21 03:15:06;;;;;;;55.28;35.00;;;;;;;15.62;48.22;100877.19;4783687;29;20074;-76
2022/08/21 03:17:33;;;;;;;53.95;34.63;;;;;;;15.75;48.11;100878.75;4783181;29;20050;-76
2022/08/21 03:20:00;;;;;;;52.97;35.15;;;;;;;15.93;47.91;100885.56;4783793;29;20070;-77
2022/08/21 03:22:26;;;;;;;49.38;36.10;;;;;;;16.03;47.52;100874.91;4796519;29;20039;-79
2022/08/21 03:24:53;;;;;;;60.33;37.08;;;;;;;15.94;47.20;100876.81;4768250;29;20047;-77
2022/08/21 03:27:20;;;;;;;55.22;38.03;;;;;;;15.97;47.01;100886.38;4784270;29;20050;-76
2022/08/21 03:29:46;;;;;;;58.85;36.72;;;;;;;15.91;47.31;100860.22;4784867;29;20062;-76
2022/08/21 03:32:12;;;;;;;59.05;36.72;;;;;;;16.04;47.30;100871.41;4785698;29;20051;-76
2022/08/21 03:34:38;;;;;;;55.58;38.25;;;;;;;16.12;47.43;100872.16;4788571;29;20051;-75
2022/08/21 03:37:06;;;;;;;62.65;38.65;;;;;;;16.21;47.13;100890.44;4785764;29;20112;-78
2022/08/21 03:39:33;;;;;;;57.85;38.85;;;;;;;16.19;46.71;100886.06;4798838;29;20050;-77
2022/08/21 03:42:00;;;;;;;62.47;39.85;;;;;;;16.30;46.79;100883.28;4784732;29;20127;-77
2022/08/21 03:44:28;;;;;;;61.05;40.55;;;;;;;16.32;46.28;100868.38;4789742;29;20043;-75
2022/08/21 03:46:56;;;;;;;65.00;40.53;;;;;;;16.52;46.20;100879.41;4805912;29;20055;-77
2022/08/21 03:49:22;;;;;;;67.38;40.78;;;;;;;16.51;45.95;100864.53;4781441;29;20094;-76
2022/08/21 03:51:48;;;;;;;65.00;40.42;;;;;;;16.74;45.89;100884.31;4795566;29;20051;-78
2022/08/21 03:54:14;;;;;;;65.97;42.00;;;;;;;16.81;45.61;100882.44;4822303;29;20043;-77
2022/08/21 03:56:40;;;;;;;62.67;41.80;;;;;;;16.86;45.77;100878.84;4823394;29;20059;-76
2022/08/21 03:59:06;;;;;;;62.63;41.88;;;;;;;17.01;45.45;100879.50;4798645;29;20047;-76
2022/08/21 04:01:33;;;;;;;70.30;43.83;;;;;;;17.18;45.16;100881.81;4804043;29;20084;-76
2022/08/21 04:03:59;;;;;;;64.20;41.80;;;;;;;17.22;45.13;100872.94;4788801;29;20043;-77
2022/08/21 04:06:26;;;;;;;65.22;42.88;;;;;;;17.29;44.84;100871.94;4801755;29;20047;-78
2022/08/21 04:08:53;;;;;;;62.15;41.40;;;;;;;17.40;44.73;100876.13;4791863;29;20045;-76
2022/08/21 04:11:19;;;;;;;67.78;42.10;;;;;;;17.32;44.60;100855.25;4784882;29;20123;-77
2022/08/21 04:13:46;;;;;;;67.18;43.90;;;;;;;17.54;44.44;100876.72;4769811;29;20047;-78
2022/08/21 04:16:13;;;;;;;69.57;45.13;;;;;;;17.55;43.99;100867.03;4807394;29;20486;-77
2022/08/21 04:18:40;;;;;;;72.57;45.63;;;;;;;17.68;43.74;100855.38;4781646;29;20047;-76
2022/08/21 04:21:09;;;;;;;69.13;45.25;;;;;;;17.76;43.48;100871.84;4796806;29;20047;-76
2022/08/21 04:23:36;;;;;;;67.07;46.55;;;;;;;17.68;43.71;100863.25;4783158;29;20142;-76
2022/08/21 04:26:02;;;;;;;70.18;46.70;;;;;;;17.65;43.31;100873.00;4782795;29;20063;-78
2022/08/21 04:28:28;;;;;;;71.85;46.88;;;;;;;17.74;43.64;100878.94;4781274;29;20051;-76
2022/08/21 04:30:55;;;;;;;69.38;45.95;;;;;;;17.91;43.60;100881.16;4812017;29;20058;-77
2022/08/21 04:33:21;;;;;;;70.47;47.08;;;;;;;17.92;43.24;100863.63;4811937;29;20047;-76
2022/08/21 04:35:49;;;;;;;71.00;47.70;;;;;;;18.11;43.17;100873.75;4801324;29;20047;-76
2022/08/21 04:38:15;;;;;;;74.40;47.83;;;;;;;18.14;43.15;100869.28;4802047;29;20462;-76
2022/08/21 04:40:41;;;;;;;73.70;49.38;;;;;;;18.32;42.57;100881.16;4785081;29;20047;-76
2022/08/21 04:43:10;;;;;;;71.72;48.17;;;;;;;18.35;42.82;100870.56;4783722;29;20404;-77
2022/08/21 04:45:40;;;;;;;66.60;45.72;;;;;;;18.62;42.82;100878.69;4812745;29;20050;-78
2022/08/21 04:48:10;;;;;;;73.75;48.25;;;;;;;18.87;42.15;100872.75;4796953;29;20121;-77
2022/08/21 04:50:53;;;;;;;72.72;47.80;;;;;;;18.97;42.14;100857.59;4793775;29;20074;-76
2022/08/21 04:53:30;;;;;;;70.05;47.72;;;;;;;19.32;41.86;100875.97;4782944;29;20096;-77
2022/08/21 04:56:00;;;;;;;68.53;49.08;;;;;;;19.46;40.45;100871.19;4811023;29;20129;-79
2022/08/21 04:58:27;;;;;;;74.80;46.03;;;;;;;19.58;41.07;100869.97;4793456;29;20053;-76
2022/08/21 05:00:57;;;;;;;70.18;46.80;;;;;;;19.72;40.70;100886.25;4780988;29;20108;-75
2022/08/21 05:03:24;;;;;;;74.05;49.53;;;;;;;19.82;39.88;100873.63;4811724;29;20047;-75
2022/08/21 05:05:50;;;;;;;68.93;48.22;;;;;;;19.75;39.80;100865.94;4796902;29;21494;-77
2022/08/21 05:08:23;;;;;;;72.22;49.15;;;;;;;19.94;40.09;100877.69;4795947;29;20043;-77
2022/08/21 05:10:49;;;;;;;63.38;45.95;;;;;;;20.06;40.08;100871.19;4810973;29;20512;-75
2022/08/21 05:13:16;;;;;;;74.25;48.05;;;;;;;20.24;39.14;100869.72;4781266;29;20047;-78
2022/08/21 05:15:42;;;;;;;71.22;48.17;;;;;;;20.39;39.22;100867.50;4796216;29;20136;-76
2022/08/21 05:18:08;;;;;;;65.35;47.50;;;;;;;20.61;38.79;100846.50;4781557;29;20492;-76
2022/08/21 05:20:34;;;;;;;66.65;45.83;;;;;;;21.06;38.67;100852.91;4781450;29;20047;-78
2022/08/21 05:23:03;;;;;;;68.50;45.42;;;;;;;21.87;37.92;100850.78;4782279;29;20100;-78
2022/08/21 05:25:29;;;;;;;62.80;43.88;;;;;;;23.16;35.73;100845.44;4796975;29;20051;-78
2022/08/21 05:27:55;;;;;;;56.80;40.30;;;;;;;24.44;34.64;100845.63;4781253;29;20047;-79
2022/08/21 05:30:22;;;;;;;56.22;40.17;;;;;;;25.23;31.89;100826.47;4812463;29;20043;-77
2022/08/21 05:32:48;;;;;;;58.80;42.78;;;;;;;26.28;30.79;100827.75;4810905;29;20108;-75
2022/08/21 05:35:17;;;;;;;60.45;40.65;;;;;;;27.21;28.97;100824.00;4812227;29;20054;-76
2022/08/21 05:37:46;;;;;;;64.00;43.15;;;;;;;27.76;28.37;100816.97;4789007;29;20092;-79
2022/08/21 05:40:15;;;;;;;58.28;41.05;;;;;;;28.52;26.98;100816.41;4812662;29;20057;-77
2022/08/21 05:42:41;;;;;;;53.60;40.30;;;;;;;29.31;25.97;100824.34;4774515;29;20050;-76
2022/08/21 05:45:07;;;;;;;55.25;40.35;;;;;;;30.44;24.86;100828.63;4783455;29;20043;-77
2022/08/21 05:47:33;;;;;;;54.85;39.95;;;;;;;30.34;23.71;100828.47;4810280;29;20058;-78
2022/08/21 05:49:59;;;;;;;56.47;39.13;;;;;;;30.46;23.94;100832.03;4793319;29;20067;-78
2022/08/21 05:52:25;;;;;;;47.25;37.72;;;;;;;30.52;24.04;100823.53;4810811;29;20167;-77
2022/08/21 05:54:53;;;;;;;46.88;37.65;;;;;;;31.15;22.42;100833.03;4781375;29;20059;-77
2022/08/21 05:57:20;;;;;;;55.40;38.55;;;;;;;31.42;21.58;100824.59;4810737;29;20047;-78
2022/08/21 05:59:46;;;;;;;45.60;34.97;;;;;;;31.75;21.81;100821.97;4811225;29;20451;-77
2022/08/21 06:02:12;;;;;;;49.45;36.83;;;;;;;32.65;21.28;100812.59;4813720;29;20043;-77
2022/08/21 06:04:39;;;;;;;48.67;38.33;;;;;;;33.65;19.73;100816.41;4794977;29;20148;-76
2022/08/21 06:07:06;;;;;;;50.55;37.22;;;;;;;34.28;18.65;100810.78;4781662;29;20050;-78
2022/08/21 06:09:33;;;;;;;49.58;36.97;;;;;;;33.97;18.51;100808.22;4810562;29;20137;-78
2022/08/21 06:12:09;;;;;;;46.58;37.13;;;;;;;33.79;19.77;100814.31;4801062;29;20073;-77
2022/08/21 06:14:37;;;;;;;45.00;39.45;;;;;;;34.24;18.60;100820.97;4788078;29;20043;-77
2022/08/21 06:17:05;;;;;;;49.50;40.60;;;;;;;34.26;17.94;100812.75;4782778;29;20170;-77
2022/08/21 06:19:31;;;;;;;52.20;39.88;;;;;;;34.26;18.22;100807.34;4786217;29;20950;-79
2022/08/21 06:21:58;;;;;;;48.55;37.30;;;;;;;34.48;18.78;100817.88;4784310;29;20583;-77
2022/08/21 06:24:24;;;;;;;49.30;38.53;;;;;;;35.68;17.90;100812.63;4780285;29;20052;-77
2022/08/21 06:26:50;;;;;;;46.97;38.00;;;;;;;36.80;16.48;100803.22;4787955;29;20093;-79
2022/08/21 06:29:17;;;;;;;48.75;38.85;;;;;;;36.54;16.24;100807.63;4788607;29;20047;-77
2022/08/21 06:31:44;;;;;;;53.80;38.85;;;;;;;36.19;15.95;100801.28;4795114;29;20791;-76
2022/08/21 06:34:12;;;;;;;46.95;36.92;;;;;;;36.77;16.68;100801.66;4784347;29;20870;-76
2022/08/21 06:36:39;;;;;;;48.53;37.42;;;;;;;37.31;15.81;100809.53;4778610;29;20065;-77
2022/08/21 06:39:05;;;;;;;44.78;36.38;;;;;;;38.09;15.42;100804.75;4785285;29;20043;-79
2022/08/21 06:41:32;;;;;;;42.15;36.33;;;;;;;39.27;14.68;100807.03;4766912;29;20043;-77
2022/08/21 06:43:58;;;;;;;43.22;33.92;;;;;;;38.47;14.90;100811.56;4798616;29;20108;-76
2022/08/21 06:46:27;;;;;;;38.03;31.73;;;;;;;38.06;14.68;100809.69;4783968;29;20093;-78
2022/08/21 06:48:53;;;;;;;39.38;31.58;;;;;;;38.32;14.52;100798.63;4801200;29;20488;-78
2022/08/21 06:51:20;;;;;;;37.15;32.20;;;;;;;38.15;14.26;100807.81;4775893;29;20046;-77
2022/08/21 06:53:46;;;;;;;41.15;31.80;;;;;;;36.92;14.39;100821.75;4799153;29;20416;-77
2022/08/21 06:56:12;;;;;;;36.63;31.58;;;;;;;36.56;14.42;100799.34;4790790;29;20547;-76
2022/08/21 06:58:38;;;;;;;37.65;30.15;;;;;;;36.70;14.51;100806.88;4790563;29;20042;-77
2022/08/21 07:01:05;;;;;;;37.90;31.10;;;;;;;36.70;15.43;100795.19;4786871;29;20047;-77
2022/08/21 07:03:37;;;;;;;37.53;30.30;;;;;;;37.71;14.63;100800.84;4785369;29;20051;-79
2022/08/21 07:06:05;;;;;;;41.60;30.77;;;;;;;37.99;13.85;100801.38;4800381;29;21447;-76
2022/08/21 07:08:31;;;;;;;37.20;28.33;;;;;;;38.31;13.27;100794.19;4786953;29;20047;-76
2022/08/21 07:10:59;;;;;;;34.30;29.15;;;;;;;38.72;13.43;100794.16;4785924;29;20134;-76
2022/08/21 07:13:28;;;;;;;33.00;27.75;;;;;;;38.92;13.58;100782.91;4789210;29;20054;-78
2022/08/21 07:15:54;;;;;;;34.58;27.23;;;;;;;40.18;12.86;100784.59;4778893;29;20063;-76
2022/08/21 07:18:21;;;;;;;38.03;28.88;;;;;;;40.15;12.08;100793.16;4799261;29;20561;-81
2022/08/21 07:20:47;;;;;;;33.28;28.15;;;;;;;39.35;12.89;100787.13;4799227;29;20138;-81
2022/08/21 07:23:32;;;;;;;36.10;28.60;;;;;;;39.54;12.39;100786.66;4827229;29;20070;-81
2022/08/21 07:26:00;;;;;;;35.05;28.05;;;;;;;38.89;12.83;100794.13;4787350;29;20046;-77
2022/08/21 07:28:27;;;;;;;36.88;29.67;;;;;;;38.55;13.01;100777.03;4818695;29;20051;-79
2022/08/21 07:30:57;;;;;;;32.78;28.02;;;;;;;38.58;12.77;100784.00;4798840;29;20051;-77
2022/08/21 07:33:25;;;;;;;35.97;27.90;;;;;;;38.21;13.01;100788.13;4830714;29;20043;-77
2022/08/21 07:35:51;;;;;;;34.38;27.00;;;;;;;38.18;12.53;100772.16;4819705;29;20050;-78
2022/08/21 07:38:18;;;;;;;40.47;27.38;;;;;;;38.12;12.60;100792.72;4817952;29;20051;-80
2022/08/21 07:40:44;;;;;;;30.17;23.90;;;;;;;37.68;12.93;100778.44;4817998;29;20585;-79
2022/08/21 07:43:21;;;;;;;32.67;26.50;;;;;;;38.89;12.17;100779.66;4787997;29;20124;-78
2022/08/21 07:45:51;;;;;;;34.28;25.65;;;;;;;39.76;12.60;100770.50;4794534;29;20051;-79
2022/08/21 07:48:17;;;;;;;35.07;26.47;;;;;;;41.21;11.35;100771.19;4783687;29;20051;-78
2022/08/21 07:50:43;;;;;;;34.75;26.98;;;;;;;40.83;11.13;100773.19;4816774;29;20093;-77
2022/08/21 07:53:10;;;;;;;31.27;25.30;;;;;;;39.69;11.87;100761.34;4785241;29;20081;-78
2022/08/21 07:55:36;;;;;;;32.38;25.90;;;;;;;39.27;11.76;100772.50;4791304;29;20054;-78
2022/08/21 07:58:02;;;;;;;34.97;24.65;;;;;;;39.26;11.76;100767.25;4790807;29;20050;-80
2022/08/21 08:00:28;;;;;;;27.77;22.80;;;;;;;39.06;11.69;100759.53;4792078;29;20055;-79
2022/08/21 08:02:55;;;;;;;30.48;22.55;;;;;;;38.87;11.89;100744.50;4785112;29;20047;-76
2022/08/21 08:05:25;;;;;;;26.65;22.48;;;;;;;38.89;11.89;100769.66;4785933;29;20047;-78
2022/08/21 08:07:51;;;;;;;27.25;21.45;;;;;;;38.87;11.74;100742.63;4784026;29;20039;-76
2022/08/21 08:10:18;;;;;;;27.17;20.50;;;;;;;39.14;11.60;100748.59;4787870;29;20043;-77
2022/08/21 08:12:45;;;;;;;26.55;18.15;;;;;;;39.17;11.40;100755.56;4787776;29;20058;-78
2022/08/21 08:15:15;;;;;;;24.42;19.83;;;;;;;38.06;11.78;100734.50;4791829;29;20213;-77
2022/08/21 08:17:41;;;;;;;23.95;18.23;;;;;;;38.16;11.92;100723.47;4784006;29;20055;-79
2022/08/21 08:20:09;;;;;;;24.58;19.10;;;;;;;38.62;11.83;100736.41;4783555;29;20162;-74
2022/08/21 08:22:37;;;;;;;26.38;19.77;;;;;;;38.78;11.45;100723.78;4796879;29;20047;-78
2022/08/21 08:25:04;;;;;;;24.95;18.52;;;;;;;38.87;11.50;100726.28;4783085;29;20043;-77
2022/08/21 08:27:30;;;;;;;22.00;17.90;;;;;;;38.97;11.88;100727.97;4767440;29;20153;-78
2022/08/21 08:29:59;;;;;;;26.08;19.13;;;;;;;39.29;11.10;100717.88;4783365;29;20108;-76
2022/08/21 08:32:26;;;;;;;23.80;18.10;;;;;;;37.96;12.08;100722.97;4796113;29;20106;-79
2022/08/21 08:34:52;;;;;;;24.05;18.35;;;;;;;37.36;12.61;100723.06;4765621;29;20050;-77
2022/08/21 08:37:20;;;;;;;30.33;18.58;;;;;;;37.32;12.56;100726.28;4796000;29;20043;-77
2022/08/21 08:39:46;;;;;;;25.27;17.52;;;;;;;37.44;12.10;100721.41;4781794;29;20046;-78
2022/08/21 08:42:16;;;;;;;28.25;17.63;;;;;;;38.12;11.88;100716.66;4781602;29;20100;-76
2022/08/21 08:44:44;;;;;;;;;;;;;;;38.03;11.63;100712.25;4796826;29;20051;-78
2022/08/21 08:47:14;;;;;;;17.83;13.70;;;;;;;37.13;12.18;100720.16;4798380;29;19925;-83
2022/08/21 08:50:07;;;;;;;21.03;14.43;;;;;;;36.77;12.50;100698.66;4782641;29;20560;-76
2022/08/21 08:52:37;;;;;;;17.23;13.70;;;;;;;36.58;12.67;100716.88;4782198;29;20051;-81
2022/08/21 08:55:09;;;;;;;16.10;11.97;;;;;;;37.33;12.28;100725.28;4800505;29;20039;-80
2022/08/21 08:57:39;;;;;;;19.90;12.00;;;;;;;36.94;11.75;100734.84;4796445;29;20138;-79
2022/08/21 09:00:10;;;;;;;18.85;11.98;;;;;;;35.70;12.91;100737.56;4769301;29;20043;-79
2022/08/21 09:02:44;;;;;;;17.38;11.25;;;;;;;34.81;13.10;100729.16;4786328;29;20043;-79
2022/08/21 09:05:26;;;;;;;17.20;11.15;;;;;;;33.52;14.04;100728.69;4783865;29;20065;-80
2022/08/21 09:08:13;;;;;;;17.55;12.55;;;;;;;33.25;14.54;100720.22;4796094;29;20051;-77
2022/08/21 09:11:01;;;;;;;15.13;11.00;;;;;;;32.87;14.18;100736.19;4797327;29;20070;-77
2022/08/21 09:13:53;;;;;;;14.70;10.13;;;;;;;32.28;15.56;100738.56;4782176;29;20040;-76
2022/08/21 09:17:09;;;;;;;17.23;10.85;;;;;;;31.84;15.03;100732.41;4808770;29;20083;-78
2022/08/21 09:20:17;;;;;;;20.45;10.40;;;;;;;31.78;15.35;100732.97;4778872;29;20124;-78
2022/08/21 09:22:49;;;;;;;16.83;11.20;;;;;;;32.83;15.65;100728.50;4782872;29;20039;-78
2022/08/21 09:25:22;;;;;;;13.05;10.70;;;;;;;33.22;14.71;100725.91;4797693;29;20138;-78
2022/08/21 09:27:49;;;;;;;15.82;10.73;;;;;;;33.83;14.49;100725.81;4796297;29;20047;-78
2022/08/21 09:30:17;;;;;;;17.88;10.57;;;;;;;34.77;14.02;100726.91;4811356;29;20058;-79
2022/08/21 09:32:43;;;;;;;17.50;12.00;;;;;;;35.09;13.49;100742.69;4811200;29;20070;-78
2022/08/21 09:35:17;;;;;;;16.23;11.35;;;;;;;35.70;13.52;100718.63;4785859;29;20202;-80
2022/08/21 09:37:59;;;;;;;17.05;11.90;;;;;;;35.26;13.78;100715.81;4782643;29;20039;-80
2022/08/21 09:40:44;;;;;;;15.70;11.23;;;;;;;34.74;14.27;100714.56;4784385;29;20051;-76
2022/08/21 09:43:22;;;;;;;16.88;10.02;;;;;;;34.34;14.36;100730.03;4811394;29;20169;-77
2022/08/21 09:46:02;;;;;;;10.48;7.38;;;;;;;33.60;13.99;100732.38;4787718;29;20182;-77
2022/08/21 09:48:29;;;;;;;10.03;6.93;;;;;;;33.16;14.73;100716.53;4807019;29;20040;-79
2022/08/21 09:51:08;;;;;;;11.25;6.90;;;;;;;32.70;14.46;100732.25;4825926;29;20066;-76
2022/08/21 09:53:42;;;;;;;10.25;6.10;;;;;;;31.78;15.22;100714.97;4829334;29;20051;-77
2022/08/21 09:59:30;;;;;;;11.60;6.32;;;;;;;30.87;16.15;100717.00;4836073;29;20051;-78
2022/08/21 10:02:01;;;;;;;11.05;5.78;;;;;;;30.82;16.70;100729.94;4835624;29;20063;-75
2022/08/21 10:04:32;;;;;;;7.00;4.90;;;;;;;30.72;16.57;100728.00;4835949;29;20071;-76
2022/08/21 10:07:12;;;;;;;11.02;4.93;;;;;;;30.39;16.90;100734.16;4790659;29;20039;-79
2022/08/21 10:09:39;;;;;;;7.88;5.35;;;;;;;30.15;17.30;100717.19;4814487;29;20150;-77
2022/08/21 10:12:26;;;;;;;8.98;5.25;;;;;;;30.00;17.27;100721.06;4784132;29;20144;-76
2022/08/21 10:15:14;;;;;;;9.52;4.47;;;;;;;29.70;17.32;100696.41;4785581;29;20067;-77
2022/08/21 10:18:00;;;;;;;9.60;4.60;;;;;;;29.54;18.03;100717.31;4784334;29;20051;-76
2022/08/21 10:20:40;;;;;;;11.02;3.90;;;;;;;29.34;18.43;100722.28;4785658;29;20055;-78
2022/08/21 10:23:06;;;;;;;8.93;4.10;;;;;;;29.19;18.22;100718.06;4784573;29;20462;-76
2022/08/21 10:25:43;;;;;;;8.20;3.90;;;;;;;28.94;18.34;100714.50;4784026;29;20062;-76
2022/08/21 10:28:26;;;;;;;5.95;2.88;;;;;;;28.64;18.14;100700.47;4785317;29;20450;-76
2022/08/21 10:31:00;;;;;;;6.03;2.67;;;;;;;28.47;18.43;100712.38;4783858;29;20135;-81
2022/08/21 10:34:15;;;;;;;9.05;3.33;;;;;;;28.31;18.98;100701.03;4769335;29;20058;-78
2022/08/21 10:37:11;;;;;;;7.43;3.30;;;;;;;28.45;18.79;100698.25;4701439;30;20056;-77
2022/08/21 10:40:30;;;;;;;7.63;3.22;;;;;;;28.35;18.95;100702.53;4782896;29;20130;-77
2022/08/21 10:43:33;;;;;;;5.03;2.80;;;;;;;28.06;18.80;100705.38;4731619;30;20143;-76
2022/08/21 10:46:39;;;;;;;6.75;3.10;;;;;;;27.96;19.26;100705.16;4785217;29;20062;-77
2022/08/21 10:49:39;;;;;;;8.57;2.90;;;;;;;27.75;20.06;100683.38;4787034;29;20043;-78
2022/08/21 10:52:30;;;;;;;8.95;3.90;;;;;;;27.68;19.66;100682.09;4791600;29;20060;-77
2022/08/21 10:55:08;;;;;;;8.27;4.55;;;;;;;27.44;19.97;100691.59;4801315;29;20769;-76
2022/08/21 10:57:44;;;;;;;8.52;4.85;;;;;;;27.39;20.06;100687.53;4785970;29;20054;-76
2022/08/21 11:00:18;;;;;;;9.50;5.15;;;;;;;27.30;20.15;100655.09;4798413;29;20066;-79
2022/08/21 11:02:55;;;;;;;11.05;5.95;;;;;;;27.52;20.55;100675.09;4784424;29;20055;-75
2022/08/21 11:05:35;;;;;;;10.70;6.38;;;;;;;27.53;20.27;100673.28;4798240;29;20047;-76
2022/08/21 11:08:12;;;;;;;11.13;6.60;;;;;;;27.59;20.40;100678.19;4800307;29;20083;-77
2022/08/21 11:10:52;;;;;;;15.02;7.03;;;;;;;27.46;20.38;100670.16;4805348;29;20111;-77
2022/08/21 11:13:35;;;;;;;12.40;7.68;;;;;;;27.59;20.77;100679.06;4809406;29;20053;-75
2022/08/21 11:16:16;;;;;;;15.63;8.52;;;;;;;27.66;20.52;100676.84;4804605;29;20123;-78
2022/08/21 11:18:53;;;;;;;12.63;9.30;;;;;;;27.72;20.72;100670.22;4782671;29;20039;-76
2022/08/21 11:21:42;;;;;;;16.08;10.25;;;;;;;27.60;20.83;100693.28;4794270;29;20208;-77
2022/08/21 11:24:19;;;;;;;17.58;10.98;;;;;;;27.42;20.95;100668.63;4789035;29;20516;-76
2022/08/21 11:26:58;;;;;;;16.95;10.98;;;;;;;27.43;20.92;100668.50;4793949;29;20047;-78
2022/08/21 11:29:31;;;;;;;16.63;11.10;;;;;;;27.45;21.31;100668.44;4784006;29;20505;-76
2022/08/21 11:32:24;;;;;;;18.30;11.13;;;;;;;27.48;21.57;100687.81;4796915;29;20051;-77